createdAt,value
2019-03-23T00:01:46.901Z,30.43
2019-03-23T00:04:18.856Z,33.97
2019-03-23T00:06:52.689Z,29.60
2019-03-23T00:09:25.698Z,28.97
2019-03-23T00:11:58.184Z,30.33
2019-03-23T00:14:29.793Z,28.67
2019-03-23T00:17:05.350Z,32.33
2019-03-23T00:19:37.550Z,34.83
2019-03-23T00:22:09.078Z,29.03
2019-03-23T00:24:40.543Z,30.40
2019-03-23T00:27:12.344Z,32.07
2019-03-23T00:29:45.118Z,29.93
2019-03-23T00:32:16.615Z,31.73
2019-03-23T00:34:48.580Z,28.23
2019-03-23T00:37:20.215Z,31.80
2019-03-23T00:40:12.738Z,34.97
2019-03-23T00:42:47.744Z,34.90
2019-03-23T00:45:19.288Z,32.10
2019-03-23T00:47:51.485Z,30.30
2019-03-23T00:50:22.934Z,32.93
2019-03-23T00:52:54.631Z,32.00
2019-03-23T00:55:26.380Z,29.33
2019-03-23T00:57:58.850Z,32.40
2019-03-23T01:00:30.372Z,31.83
2019-03-23T01:03:02.114Z,33.87
2019-03-23T01:05:34.230Z,26.83
2019-03-23T01:08:06.016Z,31.03
2019-03-23T01:10:47.628Z,32.93
2019-03-23T01:13:19.365Z,30.63
2019-03-23T01:15:51.964Z,36.30
2019-03-23T01:18:23.545Z,30.83
2019-03-23T01:20:55.374Z,32.30
2019-03-23T01:23:27.153Z,32.60
2019-03-23T01:25:58.607Z,30.27
2019-03-23T01:28:30.016Z,35.90
2019-03-23T01:31:01.903Z,33.33
2019-03-23T01:33:33.348Z,31.27
2019-03-23T01:36:04.799Z,32.03
2019-03-23T01:38:36.518Z,32.87
2019-03-23T01:41:08.010Z,30.17
2019-03-23T01:43:39.451Z,35.43
2019-03-23T01:46:10.648Z,33.87
2019-03-23T01:48:42.719Z,32.23
2019-03-23T01:51:13.843Z,28.87
2019-03-23T01:53:45.671Z,31.10
2019-03-23T01:56:17.418Z,35.47
2019-03-23T01:58:48.980Z,34.37
2019-03-23T02:01:20.081Z,31.27
2019-03-23T02:03:51.874Z,33.47
2019-03-23T02:06:24.423Z,37.87
2019-03-23T02:09:04.323Z,34.60
2019-03-23T02:11:36.155Z,29.77
2019-03-23T02:14:08.180Z,34.37
2019-03-23T02:16:39.607Z,34.57
2019-03-23T02:19:11.018Z,34.43
2019-03-23T02:21:42.811Z,33.93
2019-03-23T02:24:14.321Z,34.07
2019-03-23T02:26:45.784Z,34.07
2019-03-23T02:29:17.250Z,33.60
2019-03-23T02:31:49.204Z,34.40
2019-03-23T02:34:21.676Z,31.03
2019-03-23T02:36:53.534Z,36.07
2019-03-23T02:39:25.444Z,38.40
2019-03-23T02:41:56.851Z,38.17
2019-03-23T02:44:28.511Z,38.00
2019-03-23T02:47:00.679Z,37.57
2019-03-23T02:49:32.632Z,43.50
2019-03-23T02:52:04.079Z,40.77
2019-03-23T02:54:35.661Z,38.87
2019-03-23T02:57:08.076Z,41.60
2019-03-23T02:59:40.320Z,39.47
2019-03-23T03:02:12.751Z,40.90
2019-03-23T03:04:44.913Z,41.53
2019-03-23T03:07:17.552Z,39.13
2019-03-23T03:09:50.676Z,36.23
2019-03-23T03:12:22.652Z,36.23
2019-03-23T03:14:54.523Z,40.10
2019-03-23T03:17:28.433Z,41.53
2019-03-23T03:20:00.247Z,39.77
2019-03-23T03:22:31.618Z,35.53
2019-03-23T03:25:03.088Z,39.27
2019-03-23T03:27:34.829Z,37.97
2019-03-23T03:30:07.098Z,38.03
2019-03-23T03:32:39.229Z,37.17
2019-03-23T03:35:11.386Z,34.80
2019-03-23T03:37:55.830Z,33.30
2019-03-23T03:40:16.699Z,33.77
2019-03-23T03:42:48.657Z,36.50
2019-03-23T03:45:26.339Z,37.43
2019-03-23T03:47:58.133Z,39.37
2019-03-23T03:50:30.682Z,33.33
2019-03-23T03:53:02.541Z,40.93
2019-03-23T03:55:36.769Z,37.33
2019-03-23T03:58:07.878Z,36.40
2019-03-23T04:00:39.782Z,30.97
2019-03-23T04:03:11.191Z,37.30
2019-03-23T04:05:43.741Z,38.10
2019-03-23T04:08:15.557Z,36.60
2019-03-23T04:10:59.584Z,37.13
2019-03-23T04:13:31.457Z,36.10
2019-03-23T04:16:03.205Z,42.50
2019-03-23T04:18:34.971Z,40.63
2019-03-23T04:21:06.801Z,36.93
2019-03-23T04:23:39.390Z,38.83
2019-03-23T04:26:11.179Z,37.60
2019-03-23T04:28:42.974Z,39.67
2019-03-23T04:31:14.893Z,39.33
2019-03-23T04:33:47.068Z,37.97
2019-03-23T04:36:18.988Z,39.80
2019-03-23T04:38:50.465Z,43.13
2019-03-23T04:41:22.461Z,38.83
2019-03-23T04:43:54.387Z,40.10
2019-03-23T04:46:48.895Z,41.20
2019-03-23T04:49:20.582Z,39.13
2019-03-23T04:51:54.051Z,37.03
2019-03-23T04:54:25.205Z,35.77
2019-03-23T04:56:57.198Z,39.77
2019-03-23T04:59:28.982Z,33.20
2019-03-23T05:02:01.132Z,37.50
2019-03-23T05:04:33.434Z,38.43
2019-03-23T05:07:04.900Z,38.93
2019-03-23T05:09:36.745Z,36.50
2019-03-23T05:12:08.596Z,40.03
2019-03-23T05:14:40.354Z,40.20
2019-03-23T05:17:12.137Z,31.43
2019-03-23T05:19:43.984Z,32.60
2019-03-23T05:22:15.423Z,41.63
2019-03-23T05:24:47.538Z,35.80
2019-03-23T05:27:19.355Z,36.27
2019-03-23T05:29:51.519Z,39.20
2019-03-23T05:32:32.097Z,35.93
2019-03-23T05:35:03.566Z,45.80
2019-03-23T05:37:35.314Z,43.57
2019-03-23T05:40:07.153Z,42.27
2019-03-23T05:42:40.240Z,39.43
2019-03-23T05:45:11.906Z,42.10
2019-03-23T05:47:44.394Z,35.80
2019-03-23T05:50:16.348Z,36.50
2019-03-23T05:52:48.099Z,37.13
2019-03-23T05:55:19.962Z,36.50
2019-03-23T05:57:52.538Z,41.00
2019-03-23T06:00:30.054Z,38.77
2019-03-23T06:03:02.222Z,38.87
2019-03-23T06:05:34.774Z,36.40
2019-03-23T06:08:06.243Z,35.00
2019-03-23T06:10:37.989Z,36.57
2019-03-23T06:13:09.816Z,37.37
2019-03-23T06:15:42.122Z,36.87
2019-03-23T06:18:13.969Z,34.40
2019-03-23T06:20:45.724Z,34.43
2019-03-23T06:23:17.503Z,33.40
2019-03-23T06:25:48.933Z,35.47
2019-03-23T06:28:20.917Z,38.63
2019-03-23T06:31:04.836Z,39.30
2019-03-23T06:33:36.401Z,40.70
2019-03-23T06:36:08.545Z,39.97
2019-03-23T06:38:40.492Z,34.80
2019-03-23T06:41:13.410Z,39.20
2019-03-23T06:43:45.984Z,35.07
2019-03-23T06:46:18.246Z,34.27
2019-03-23T06:48:50.083Z,37.20
2019-03-23T06:51:21.583Z,41.37
2019-03-23T06:53:55.368Z,44.20
2019-03-23T06:56:27.476Z,37.90
2019-03-23T06:58:58.979Z,39.33
2019-03-23T07:01:30.434Z,38.70
2019-03-23T07:04:02.351Z,36.40
2019-03-23T07:06:33.575Z,38.23
2019-03-23T07:09:16.129Z,35.60
2019-03-23T07:11:42.295Z,36.80
2019-03-23T07:14:14.723Z,32.13
2019-03-23T07:16:47.082Z,37.00
2019-03-23T07:19:18.899Z,33.77
2019-03-23T07:21:50.389Z,35.47
2019-03-23T07:24:21.783Z,36.47
2019-03-23T07:26:53.501Z,35.20
2019-03-23T07:29:24.916Z,36.80
2019-03-23T07:32:05.432Z,33.83
2019-03-23T07:34:29.535Z,34.50
2019-03-23T07:37:01.294Z,32.90
2019-03-23T07:39:33.382Z,33.57
2019-03-23T07:42:04.533Z,34.67
2019-03-23T07:44:36.044Z,29.93
2019-03-23T07:47:07.819Z,34.27
2019-03-23T07:49:39.258Z,30.57
2019-03-23T07:52:10.734Z,33.83
2019-03-23T07:54:42.682Z,36.37
2019-03-23T07:57:14.161Z,33.37
2019-03-23T07:59:45.717Z,36.13
2019-03-23T08:02:17.947Z,36.03
2019-03-23T08:04:51.038Z,33.73
2019-03-23T08:07:22.395Z,34.23
2019-03-23T08:09:54.469Z,35.40
2019-03-23T08:12:26.452Z,35.93
2019-03-23T08:14:58.500Z,31.73
2019-03-23T08:17:29.942Z,36.23
2019-03-23T08:20:02.361Z,41.53
2019-03-23T08:22:34.474Z,42.37
2019-03-23T08:25:06.527Z,37.33
2019-03-23T08:27:37.919Z,38.53
2019-03-23T08:30:09.648Z,38.03
2019-03-23T08:32:42.143Z,36.97
2019-03-23T08:35:13.305Z,34.10
2019-03-23T08:37:46.895Z,32.83
2019-03-23T08:40:18.042Z,33.77
2019-03-23T08:42:51.182Z,31.83
2019-03-23T08:45:22.972Z,34.37
2019-03-23T08:47:54.833Z,34.33
2019-03-23T08:50:26.647Z,33.07
2019-03-23T08:52:57.838Z,37.17
2019-03-23T08:55:29.754Z,36.03
2019-03-23T08:58:01.950Z,33.53
2019-03-23T09:00:34.167Z,34.03
2019-03-23T09:03:05.970Z,32.57
2019-03-23T09:05:37.421Z,33.43
2019-03-23T09:08:09.416Z,35.70
2019-03-23T09:10:41.735Z,33.20
2019-03-23T09:13:14.633Z,34.10
2019-03-23T09:15:47.128Z,34.50
2019-03-23T09:18:18.838Z,33.03
2019-03-23T09:20:52.687Z,35.33
2019-03-23T09:23:24.481Z,32.83
2019-03-23T09:25:56.512Z,34.23
2019-03-23T09:28:28.546Z,32.27
2019-03-23T09:31:01.463Z,29.83
2019-03-23T09:33:33.397Z,33.23
2019-03-23T09:36:05.278Z,35.30
2019-03-23T09:38:37.593Z,32.50
2019-03-23T09:41:11.957Z,32.67
2019-03-23T09:43:43.871Z,32.97
2019-03-23T09:46:15.374Z,38.97
2019-03-23T09:48:46.860Z,32.30
2019-03-23T09:51:18.677Z,32.25
2019-03-23T09:53:51.678Z,30.10
2019-03-23T09:56:23.971Z,32.73
2019-03-23T09:58:56.428Z,27.40
2019-03-23T10:01:28.587Z,28.32
2019-03-23T10:04:00.451Z,25.80
2019-03-23T10:06:34.765Z,29.45
2019-03-23T10:09:07.903Z,25.57
2019-03-23T10:11:39.077Z,24.98
2019-03-23T10:14:10.871Z,22.80
2019-03-23T10:16:42.713Z,22.95
2019-03-23T10:19:31.368Z,23.30
2019-03-23T10:22:03.156Z,24.98
2019-03-23T10:24:35.287Z,31.73
2019-03-23T10:27:07.213Z,26.97
2019-03-23T10:29:38.637Z,23.92
2019-03-23T10:32:10.050Z,23.80
2019-03-23T10:34:42.189Z,20.27
2019-03-23T10:37:13.907Z,20.15
2019-03-23T10:39:46.424Z,18.75
2019-03-23T10:42:18.728Z,21.02
2019-03-23T10:44:52.097Z,20.55
2019-03-23T10:47:23.912Z,20.90
2019-03-23T10:49:55.852Z,18.95
2019-03-23T10:52:28.376Z,21.52
2019-03-23T10:55:00.119Z,24.00
2019-03-23T10:57:31.947Z,20.27
2019-03-23T11:00:04.501Z,21.57
2019-03-23T11:02:37.149Z,22.98
2019-03-23T11:05:09.661Z,22.35
2019-03-23T11:07:42.230Z,20.20
2019-03-23T11:10:14.433Z,23.07
2019-03-23T11:12:46.673Z,24.55
2019-03-23T11:15:18.129Z,26.15
2019-03-23T11:17:50.153Z,25.57
2019-03-23T11:20:21.961Z,24.80
2019-03-23T11:22:53.556Z,25.65
